• Join FlightAware (Why Join?)
  • Login
  • US Flag 
05:54AM EDT


 

Airport Tracker/Info


-or-


 

Live Flight TrackerFlight Track Log ✈ ASQ4283 ✈ 03-Jul-2013 ✈ KIAH - KCLT

Flight Track Log - Related Links

Times and Time Zones

All times are in EDT time to prevent confusion due to time zone crossing. See the ASQ4283 flight status page for this flight to view local times or setup timezone preferences in your user account.

Time Position Orientation Groundspeed Altitude Reporting Facility
EDT Latitude Longitude Course Direction KTS MPH feet Rate Location/Type
11:56AM 29.9597 -95.3439 41° Northeast 164 189 600  Level Houston Center
11:57AM 29.9289 -95.3764 222° Southwest 225 259 2,200 1,620 Climbing Houston Center
11:57AM 29.9500 -95.3908 329° Northwest 225 259 3,100 2,100 Climbing Houston Center
11:58AM 29.9833 -95.3747 23° Northeast 221 254 4,400 1,620 Climbing Houston Center
11:58AM 30.0050 -95.3583 33° Northeast 226 260 4,800 1,560 Climbing Houston Center
11:59AM 30.3617 -95.0306 35° Northeast  Level FlightAware Approximate
11:59AM 30.0656 -95.3064 37° Northeast 262 302 6,800  Level Houston Center
12:00PM 30.4529 -94.9500 North  Level FlightAware Approximate
12:00PM 30.1275 -95.2544 36° Northeast 272 313 8,900  Level Houston Center
12:01PM 30.5503 -94.8830 41° Northeast  Level FlightAware Approximate
12:01PM 30.2075 -95.1867 36° Northeast 298 343 10,500  Level Houston Center
12:02PM 30.2828 -95.1225 36° Northeast 330 380 11,600 1,200 Climbing Houston Center
12:03PM 30.3608 -95.0556 36° Northeast 345 397 13,100 1,380 Climbing Houston Center
12:04PM 30.4358 -94.9928 36° Northeast 348 400 14,500 1,500 Climbing Houston Center
12:06PM 30.5297 -94.9119 37° Northeast 350 403 16,300 1,380 Climbing Houston Center
12:07PM 30.6111 -94.8472 34° Northeast 354 407 17,400 720 Climbing Houston Center
12:08PM 30.6975 -94.7817 33° Northeast 366 421 17,900 480 Climbing Houston Center
12:09PM 30.7900 -94.7103 34° Northeast 390 449 18,500 600 Climbing Houston Center
12:10PM 30.8844 -94.6372 34° Northeast 407 468 19,200 900 Climbing Houston Center
12:11PM 30.9981 -94.5486 34° Northeast 411 473 20,400 960 Climbing Houston Center
12:12PM 31.0931 -94.4753 33° Northeast 412 474 21,300 900 Climbing Houston Center
12:13PM 31.1897 -94.4000 34° Northeast 420 483 22,300 960 Climbing Houston Center
12:14PM 31.2858 -94.3250 34° Northeast 419 482 23,300 960 Climbing Houston Center
12:15PM 31.3819 -94.2506 33° Northeast 417 480 24,300 1,020 Climbing Houston Center
12:16PM 31.4969 -94.1606 34° Northeast 415 478 25,500 1,080 Climbing Houston Center
12:17PM 31.5911 -94.0856 34° Northeast 412 474 26,600 960 Climbing Houston Center
12:18PM 31.6856 -94.0122 33° Northeast 409 471 27,600 960 Climbing Houston Center
12:19PM 31.7803 -93.9378 34° Northeast 408 470 28,600 960 Climbing Houston Center
12:20PM 31.8694 -93.8436 42° Northeast 397 457 29,700 960 Climbing Houston Center
12:21PM 31.9392 -93.7378 52° Northeast 407 468 30,700 960 Climbing Houston Center
12:22PM 32.0069 -93.6331 53° Northeast 402 463 31,800 900 Climbing Houston Center
12:23PM 32.0769 -93.5269 52° Northeast 408 470 32,600 840 Climbing Houston Center
12:24PM 32.1342 -93.4417 52° Northeast 399 459 33,300 780 Climbing Fort Worth Center
12:25PM 32.2033 -93.3256 55° Northeast 411 473 34,000 720 Climbing Fort Worth Center
12:26PM 32.2750 -93.2144 53° Northeast 416 479 34,800 480 Climbing Fort Worth Center
12:27PM 32.3464 -93.1078 52° Northeast 416 479 35,000 60 Climbing Fort Worth Center
12:28PM 32.4258 -92.9883 52° Northeast 416 479 35,000  Level Fort Worth Center
12:29PM 32.5086 -92.8536 54° Northeast 462 532 35,000  Level Fort Worth Center
12:30PM 32.5878 -92.7314 52° Northeast 472 543 35,000  Level Fort Worth Center
12:31PM 32.6686 -92.6064 52° Northeast 472 543 35,000  Level Fort Worth Center
12:32PM 32.7492 -92.4811 53° Northeast 479 551 35,000  Level Fort Worth Center
12:34PM 32.9300 -92.1889 54° Northeast 484 557 35,000  Level Memphis Center
12:35PM 33.0175 -92.0569 52° Northeast 484 557 35,000  Level Memphis Center
12:36PM 33.0900 -91.9244 57° Northeast 484 557 35,000  Level Memphis Center
12:37PM 33.1772 -91.7894 52° Northeast 494 568 35,000  Level Memphis Center
12:38PM 33.2603 -91.6592 53° Northeast 499 574 35,000  Level Memphis Center
12:39PM 33.3450 -91.5211 54° Northeast 499 574 35,000  Level Memphis Center
12:40PM 33.4275 -91.3853 54° Northeast 499 574 35,000  Level Memphis Center
12:41PM 33.5164 -91.2467 52° Northeast 505 581 35,000  Level Memphis Center
12:42PM 33.5986 -91.1103 54° Northeast 505 581 35,000  Level Memphis Center
12:43PM 33.6828 -90.9714 54° Northeast 505 581 35,000  Level Memphis Center
12:44PM 33.7669 -90.8319 54° Northeast 505 581 35,000  Level Memphis Center
12:45PM 33.8403 -90.7097 54° Northeast 505 581 35,000  Level Memphis Center
12:46PM 33.9242 -90.5700 54° Northeast 505 581 35,000  Level Memphis Center
12:47PM 34.0078 -90.4325 54° Northeast 505 581 35,000  Level Memphis Center
12:48PM 34.0914 -90.2919 54° Northeast 505 581 35,000  Level Memphis Center
12:49PM 34.1725 -90.1539 55° Northeast 510 587 35,000  Level Memphis Center
12:50PM 34.2558 -90.0153 54° Northeast 510 587 35,000  Level Memphis Center
12:51PM 34.3428 -89.8642 55° Northeast 510 587 35,000  Level Memphis Center
12:52PM 34.4256 -89.7225 55° Northeast 510 587 35,000  Level Memphis Center
12:53PM 34.5083 -89.5808 55° Northeast 510 587 35,000  Level Memphis Center
12:54PM 34.5908 -89.4389 55° Northeast 515 593 35,000  Level Memphis Center
12:55PM 34.6731 -89.2964 55° Northeast 515 593 35,000  Level Memphis Center
12:56PM 34.7553 -89.1539 55° Northeast 515 593 35,000  Level Memphis Center
12:57PM 34.8372 -89.0161 54° Northeast 504 580 35,000  Level Memphis Center
12:58PM 34.9192 -88.8756 55° Northeast 504 580 35,000  Level Memphis Center
12:59PM 34.9989 -88.7372 55° Northeast 504 580 35,000  Level Memphis Center
01:00PM 35.0803 -88.5961 55° Northeast 499 574 35,000  Level Memphis Center
01:01PM 35.1556 -88.4650 55° Northeast 499 574 35,000  Level Memphis Center
01:02PM 35.2347 -88.3283 55° Northeast 494 568 35,000  Level Memphis Center
01:03PM 35.3139 -88.1892 55° Northeast 494 568 35,000  Level Memphis Center
01:04PM 35.3906 -88.0494 56° Northeast 500 575 35,000  Level Memphis Center
01:05PM 35.4611 -87.9253 55° Northeast 495 570 35,000  Level Memphis Center
01:06PM 35.5100 -87.7708 69° East 474 545 35,000  Level Memphis Center
01:07PM 35.5297 -87.6172 81° East 461 531 35,000 180 Level Memphis Center
01:08PM 35.5472 -87.4686 82° East 446 513 35,400 600 Climbing Memphis Center
01:09PM 35.5625 -87.3225 83° East 438 504 36,200 780 Climbing Memphis Center
01:10PM 35.5775 -87.1739 83° East 438 504 37,000 360 Climbing Memphis Center
01:11PM 35.5942 -87.0150 83° East 438 504 37,000  Level Memphis Center
01:12PM 35.6131 -86.8611 81° East 438 504 37,000  Level Memphis Center
01:13PM 35.6272 -86.7072 83° East 453 521 37,000  Level Memphis Center
01:14PM 35.6456 -86.5506 82° East 458 527 37,000  Level Memphis Center
01:15PM 35.6636 -86.3939 82° East 463 533 37,000  Level Memphis Center
01:17PM 35.6925 -86.1150 83° East 443 510 37,000  Level Atlanta Center
01:18PM 35.7094 -85.9644 82° East 443 510 37,000  Level Atlanta Center
01:19PM 35.7242 -85.8164 83° East 450 518 37,000  Level Atlanta Center
01:20PM 35.7408 -85.6658 82° East 445 512 37,000  Level Atlanta Center
01:21PM 35.7533 -85.5178 84° East 440 506 37,000  Level Atlanta Center
01:22PM 35.7694 -85.3697 82° East 440 506 37,000 -120 Level Atlanta Center
01:23PM 35.7836 -85.2214 83° East 440 506 36,800  Descending Atlanta Center
01:24PM 35.7975 -85.0706 83° East 440 506 37,000 -900 Climbing Atlanta Center
01:25PM 35.8133 -84.9144 83° East 451 519 35,000  Descending Atlanta Center
01:26PM 35.8433 -84.7739 75° East 451 519 37,000  Climbing Atlanta Center
01:27PM 35.8378 -84.6278 93° East 454 522 35,000 -1,020 Descending Atlanta Center
01:28PM 35.8531 -84.4744 83° East 449 517 35,000  Level Atlanta Center
01:29PM 35.8661 -84.3206 84° East 449 517 35,000  Level Atlanta Center
01:30PM 35.8725 -84.1644 87° East 449 517 35,000  Level Atlanta Center
01:31PM 35.8789 -84.0131 87° East 444 511 35,000 -660 Level Atlanta Center
01:32PM 35.8850 -83.8542 87° East 444 511 33,700 -1,680 Descending Atlanta Center
01:33PM 35.8908 -83.6953 87° East 454 522 31,700 -2,100 Descending Atlanta Center
01:34PM 35.8947 -83.5467 88° East 454 522 29,500 -1,380 Descending Atlanta Center
01:35PM 35.8961 -83.4031 89° East 430 495 29,000 -300 Descending Atlanta Center
01:36PM 35.8908 -83.2519 92° East 425 489 29,000 -600 Level Atlanta Center
01:37PM 35.8858 -83.1006 92° East 437 503 27,900 -1,440 Descending Atlanta Center
01:38PM 35.8844 -82.9469 91° East 442 509 26,200 -1,740 Descending Atlanta Center
01:39PM 35.8808 -82.7958 92° East 442 509 24,500 -1,440 Descending Atlanta Center
01:40PM 35.8772 -82.6472 92° East 437 503 23,400 -1,200 Descending Atlanta Center
01:41PM 35.8589 -82.5092 99° East 430 495 22,200 -1,260 Descending Atlanta Center
01:42PM 35.7642 -82.4469 152° Southeast 338 389 20,900 -1,320 Descending Atlanta Center
01:43PM 35.6614 -82.3953 158° South 346 398 19,600 -1,320 Descending Atlanta Center
01:44PM 35.6097 -82.2814 119° Southeast 372 428 18,300 -1,080 Descending Atlanta Center
01:45PM 35.5703 -82.1569 111° Southeast 379 436 17,500 -900 Descending Atlanta Center
01:46PM 35.5350 -82.0353 110° East 385 443 16,500 -900 Descending Atlanta Center
01:47PM 35.5183 -81.9056 99° East 378 435 15,800 -780 Descending Atlanta Center
01:48PM 35.4972 -81.7839 102° East 372 428 15,000 -1,020 Descending Atlanta Center
01:49PM 35.4836 -81.7231 105° East 375 432 14,300 -1,500 Descending Atlanta Center
01:49PM 35.4758 -81.6389 96° East 390 449 13,300 -1,920 Descending Atlanta Center
01:50PM 35.4819 -81.5317 86° East 364 419 11,500 -1,680 Descending Atlanta Center
01:51PM 35.4733 -81.4250 96° East 330 380 10,200 -1,200 Descending Atlanta Center
01:52PM 35.5133 -81.3369 61° Northeast 281 323 9,100 -900 Descending Atlanta Center
01:53PM 35.5492 -81.2592 60° Northeast 269 310 8,500 -540 Descending Atlanta Center
01:54PM 35.5808 -81.1839 63° Northeast 258 297 8,100 -480 Descending Atlanta Center
01:55PM 35.5644 -81.1156 106° East 207 238 7,600 -660 Descending Atlanta Center
01:56PM 35.5381 -81.0578 119° Southeast 202 232 6,800 -900 Descending Atlanta Center
01:57PM 35.5181 -81.0100 117° Southeast 190 219 5,900 -720 Descending Atlanta Center
01:58PM 35.4781 -80.9861 154° Southeast 167 192 5,400 -540 Descending Atlanta Center